sensor_id;sensor_type;location;lat;lon;timestamp;P1;durP1;ratioP1;P2;durP2;ratioP2
51248;SDS011;39642;47.556;18.728;2023-05-17T00:00:54;13.93;;;5.28;;
51248;SDS011;39642;47.556;18.728;2023-05-17T00:03:20;12.63;;;5.50;;
51248;SDS011;39642;47.556;18.728;2023-05-17T00:05:46;15.55;;;5.57;;
51248;SDS011;39642;47.556;18.728;2023-05-17T00:08:12;13.80;;;4.95;;
51248;SDS011;39642;47.556;18.728;2023-05-17T00:10:38;12.63;;;5.05;;
51248;SDS011;39642;47.556;18.728;2023-05-17T00:13:04;13.10;;;4.85;;
51248;SDS011;39642;47.556;18.728;2023-05-17T00:15:29;11.93;;;4.80;;
51248;SDS011;39642;47.556;18.728;2023-05-17T00:17:55;11.85;;;5.22;;
51248;SDS011;39642;47.556;18.728;2023-05-17T00:20:21;13.52;;;5.03;;
51248;SDS011;39642;47.556;18.728;2023-05-17T00:22:47;13.15;;;5.40;;
51248;SDS011;39642;47.556;18.728;2023-05-17T00:25:13;12.75;;;5.07;;
51248;SDS011;39642;47.556;18.728;2023-05-17T00:27:39;14.18;;;5.32;;
51248;SDS011;39642;47.556;18.728;2023-05-17T00:30:05;13.15;;;5.05;;
51248;SDS011;39642;47.556;18.728;2023-05-17T00:32:32;12.48;;;5.20;;
51248;SDS011;39642;47.556;18.728;2023-05-17T00:34:57;12.48;;;5.60;;
51248;SDS011;39642;47.556;18.728;2023-05-17T00:37:23;12.52;;;5.00;;
51248;SDS011;39642;47.556;18.728;2023-05-17T00:39:49;12.30;;;5.30;;
51248;SDS011;39642;47.556;18.728;2023-05-17T00:42:15;12.40;;;5.18;;
51248;SDS011;39642;47.556;18.728;2023-05-17T00:44:41;14.48;;;5.25;;
51248;SDS011;39642;47.556;18.728;2023-05-17T00:47:07;14.23;;;5.45;;
51248;SDS011;39642;47.556;18.728;2023-05-17T00:49:33;11.45;;;5.10;;
51248;SDS011;39642;47.556;18.728;2023-05-17T00:51:58;12.63;;;4.97;;
51248;SDS011;39642;47.556;18.728;2023-05-17T00:54:25;11.82;;;5.00;;
51248;SDS011;39642;47.556;18.728;2023-05-17T00:56:51;12.20;;;5.15;;
51248;SDS011;39642;47.556;18.728;2023-05-17T00:59:18;13.45;;;5.32;;
51248;SDS011;39642;47.556;18.728;2023-05-17T01:01:45;12.98;;;4.97;;
51248;SDS011;39642;47.556;18.728;2023-05-17T01:04:12;12.93;;;5.43;;
51248;SDS011;39642;47.556;18.728;2023-05-17T01:06:38;12.23;;;5.00;;
51248;SDS011;39642;47.556;18.728;2023-05-17T01:09:04;11.20;;;4.82;;
51248;SDS011;39642;47.556;18.728;2023-05-17T01:17:27;11.52;;;4.93;;
51248;SDS011;39642;47.556;18.728;2023-05-17T01:20:04;12.32;;;5.03;;
51248;SDS011;39642;47.556;18.728;2023-05-17T01:22:51;11.60;;;4.85;;
51248;SDS011;39642;47.556;18.728;2023-05-17T01:28:07;12.48;;;4.68;;
51248;SDS011;39642;47.556;18.728;2023-05-17T01:30:35;11.93;;;4.90;;
51248;SDS011;39642;47.556;18.728;2023-05-17T01:33:02;12.90;;;5.35;;
51248;SDS011;39642;47.556;18.728;2023-05-17T01:35:29;11.80;;;5.03;;
51248;SDS011;39642;47.556;18.728;2023-05-17T01:37:55;11.32;;;5.07;;
51248;SDS011;39642;47.556;18.728;2023-05-17T01:40:21;13.05;;;5.30;;
51248;SDS011;39642;47.556;18.728;2023-05-17T01:42:48;11.88;;;4.62;;
51248;SDS011;39642;47.556;18.728;2023-05-17T01:45:27;11.15;;;4.82;;
51248;SDS011;39642;47.556;18.728;2023-05-17T01:50:47;11.00;;;5.12;;
51248;SDS011;39642;47.556;18.728;2023-05-17T01:53:27;11.90;;;4.85;;
51248;SDS011;39642;47.556;18.728;2023-05-17T01:55:56;11.60;;;4.68;;
51248;SDS011;39642;47.556;18.728;2023-05-17T01:58:28;13.23;;;5.17;;
51248;SDS011;39642;47.556;18.728;2023-05-17T02:00:55;13.07;;;5.10;;
51248;SDS011;39642;47.556;18.728;2023-05-17T02:03:26;12.35;;;5.05;;
51248;SDS011;39642;47.556;18.728;2023-05-17T02:05:55;11.65;;;4.90;;
51248;SDS011;39642;47.556;18.728;2023-05-17T02:08:20;12.57;;;4.78;;
51248;SDS011;39642;47.556;18.728;2023-05-17T02:10:46;10.35;;;4.80;;
51248;SDS011;39642;47.556;18.728;2023-05-17T02:13:12;12.05;;;4.65;;
51248;SDS011;39642;47.556;18.728;2023-05-17T02:15:38;12.43;;;4.85;;
51248;SDS011;39642;47.556;18.728;2023-05-17T02:18:04;11.73;;;4.35;;
51248;SDS011;39642;47.556;18.728;2023-05-17T02:20:30;10.77;;;4.57;;
51248;SDS011;39642;47.556;18.728;2023-05-17T02:22:56;12.90;;;4.80;;
51248;SDS011;39642;47.556;18.728;2023-05-17T02:25:22;11.80;;;4.87;;
51248;SDS011;39642;47.556;18.728;2023-05-17T02:27:48;12.23;;;5.03;;
51248;SDS011;39642;47.556;18.728;2023-05-17T02:30:14;11.63;;;4.07;;
51248;SDS011;39642;47.556;18.728;2023-05-17T02:32:41;12.68;;;4.85;;
51248;SDS011;39642;47.556;18.728;2023-05-17T02:35:07;10.60;;;4.45;;
51248;SDS011;39642;47.556;18.728;2023-05-17T02:37:34;10.18;;;4.47;;
51248;SDS011;39642;47.556;18.728;2023-05-17T02:39:59;10.25;;;4.35;;
51248;SDS011;39642;47.556;18.728;2023-05-17T02:42:25;10.35;;;4.35;;
51248;SDS011;39642;47.556;18.728;2023-05-17T02:44:51;12.50;;;4.80;;
51248;SDS011;39642;47.556;18.728;2023-05-17T02:47:20;11.45;;;4.70;;
51248;SDS011;39642;47.556;18.728;2023-05-17T02:49:46;11.45;;;4.80;;
51248;SDS011;39642;47.556;18.728;2023-05-17T02:52:13;11.12;;;4.62;;
51248;SDS011;39642;47.556;18.728;2023-05-17T02:54:40;11.93;;;4.45;;
51248;SDS011;39642;47.556;18.728;2023-05-17T02:57:08;12.60;;;4.70;;
51248;SDS011;39642;47.556;18.728;2023-05-17T02:59:35;10.05;;;4.32;;
51248;SDS011;39642;47.556;18.728;2023-05-17T03:02:01;10.80;;;4.53;;
51248;SDS011;39642;47.556;18.728;2023-05-17T03:04:27;10.45;;;4.35;;
51248;SDS011;39642;47.556;18.728;2023-05-17T03:06:53;12.20;;;4.90;;
51248;SDS011;39642;47.556;18.728;2023-05-17T03:09:20;10.98;;;4.37;;
51248;SDS011;39642;47.556;18.728;2023-05-17T03:11:46;11.60;;;4.22;;
51248;SDS011;39642;47.556;18.728;2023-05-17T03:14:12;11.80;;;4.65;;
51248;SDS011;39642;47.556;18.728;2023-05-17T03:16:38;10.93;;;4.25;;
51248;SDS011;39642;47.556;18.728;2023-05-17T03:19:05;9.95;;;4.10;;
51248;SDS011;39642;47.556;18.728;2023-05-17T03:21:31;9.70;;;4.07;;
51248;SDS011;39642;47.556;18.728;2023-05-17T03:23:58;11.40;;;4.15;;
51248;SDS011;39642;47.556;18.728;2023-05-17T03:26:24;9.50;;;3.95;;
51248;SDS011;39642;47.556;18.728;2023-05-17T03:28:49;10.75;;;4.18;;
51248;SDS011;39642;47.556;18.728;2023-05-17T03:31:15;12.13;;;4.37;;
51248;SDS011;39642;47.556;18.728;2023-05-17T03:33:42;11.32;;;4.60;;
51248;SDS011;39642;47.556;18.728;2023-05-17T03:36:07;11.48;;;4.00;;
51248;SDS011;39642;47.556;18.728;2023-05-17T03:38:33;10.80;;;4.28;;
51248;SDS011;39642;47.556;18.728;2023-05-17T03:41:00;10.32;;;3.90;;
51248;SDS011;39642;47.556;18.728;2023-05-17T03:43:26;9.60;;;3.70;;
51248;SDS011;39642;47.556;18.728;2023-05-17T03:45:53;10.45;;;4.37;;
51248;SDS011;39642;47.556;18.728;2023-05-17T03:48:18;10.95;;;4.07;;
51248;SDS011;39642;47.556;18.728;2023-05-17T03:50:44;10.30;;;3.97;;
51248;SDS011;39642;47.556;18.728;2023-05-17T03:53:10;9.73;;;4.00;;
51248;SDS011;39642;47.556;18.728;2023-05-17T03:55:36;11.43;;;4.15;;
51248;SDS011;39642;47.556;18.728;2023-05-17T03:58:02;10.18;;;3.70;;
51248;SDS011;39642;47.556;18.728;2023-05-17T04:00:28;10.25;;;3.92;;
51248;SDS011;39642;47.556;18.728;2023-05-17T04:02:54;10.23;;;3.90;;
51248;SDS011;39642;47.556;18.728;2023-05-17T04:05:20;9.85;;;3.83;;
51248;SDS011;39642;47.556;18.728;2023-05-17T04:07:46;10.23;;;3.87;;
51248;SDS011;39642;47.556;18.728;2023-05-17T04:10:12;11.02;;;4.10;;
51248;SDS011;39642;47.556;18.728;2023-05-17T04:12:38;9.75;;;3.90;;
51248;SDS011;39642;47.556;18.728;2023-05-17T04:15:04;10.65;;;3.80;;
51248;SDS011;39642;47.556;18.728;2023-05-17T04:17:31;10.68;;;3.67;;
51248;SDS011;39642;47.556;18.728;2023-05-17T04:19:57;9.05;;;3.58;;
51248;SDS011;39642;47.556;18.728;2023-05-17T04:22:23;9.32;;;3.72;;
51248;SDS011;39642;47.556;18.728;2023-05-17T04:24:48;8.93;;;3.40;;
51248;SDS011;39642;47.556;18.728;2023-05-17T04:27:15;10.38;;;3.90;;
51248;SDS011;39642;47.556;18.728;2023-05-17T04:29:41;9.80;;;3.67;;
51248;SDS011;39642;47.556;18.728;2023-05-17T04:32:07;10.40;;;3.95;;
51248;SDS011;39642;47.556;18.728;2023-05-17T04:34:33;9.68;;;3.80;;
51248;SDS011;39642;47.556;18.728;2023-05-17T04:36:59;10.48;;;3.50;;
51248;SDS011;39642;47.556;18.728;2023-05-17T04:39:25;10.75;;;3.60;;
51248;SDS011;39642;47.556;18.728;2023-05-17T04:41:51;10.32;;;3.90;;
51248;SDS011;39642;47.556;18.728;2023-05-17T04:44:17;9.27;;;3.60;;
51248;SDS011;39642;47.556;18.728;2023-05-17T04:46:43;8.50;;;3.30;;
51248;SDS011;39642;47.556;18.728;2023-05-17T04:49:10;9.45;;;3.40;;
51248;SDS011;39642;47.556;18.728;2023-05-17T04:51:36;10.23;;;3.40;;
51248;SDS011;39642;47.556;18.728;2023-05-17T04:54:02;9.00;;;3.50;;
51248;SDS011;39642;47.556;18.728;2023-05-17T04:56:32;9.90;;;3.42;;
51248;SDS011;39642;47.556;18.728;2023-05-17T04:58:58;11.95;;;3.70;;
51248;SDS011;39642;47.556;18.728;2023-05-17T05:01:24;10.02;;;3.40;;
51248;SDS011;39642;47.556;18.728;2023-05-17T05:03:50;9.00;;;3.37;;
51248;SDS011;39642;47.556;18.728;2023-05-17T05:06:16;10.68;;;3.47;;
51248;SDS011;39642;47.556;18.728;2023-05-17T05:08:42;10.77;;;3.70;;
51248;SDS011;39642;47.556;18.728;2023-05-17T05:11:08;10.10;;;3.60;;
51248;SDS011;39642;47.556;18.728;2023-05-17T05:13:34;10.60;;;3.62;;
51248;SDS011;39642;47.556;18.728;2023-05-17T05:16:04;10.18;;;3.60;;
51248;SDS011;39642;47.556;18.728;2023-05-17T05:18:31;19.65;;;7.07;;
51248;SDS011;39642;47.556;18.728;2023-05-17T05:20:58;32.95;;;9.57;;
51248;SDS011;39642;47.556;18.728;2023-05-17T05:23:24;23.95;;;8.80;;
51248;SDS011;39642;47.556;18.728;2023-05-17T05:25:50;21.52;;;7.57;;
51248;SDS011;39642;47.556;18.728;2023-05-17T05:28:16;20.88;;;7.65;;
51248;SDS011;39642;47.556;18.728;2023-05-17T05:30:42;26.90;;;8.13;;
51248;SDS011;39642;47.556;18.728;2023-05-17T05:33:08;19.17;;;6.68;;
51248;SDS011;39642;47.556;18.728;2023-05-17T05:35:34;37.22;;;11.85;;
51248;SDS011;39642;47.556;18.728;2023-05-17T05:38:00;25.98;;;11.02;;
51248;SDS011;39642;47.556;18.728;2023-05-17T05:40:26;36.28;;;11.75;;
51248;SDS011;39642;47.556;18.728;2023-05-17T05:42:52;20.75;;;8.93;;
51248;SDS011;39642;47.556;18.728;2023-05-17T05:45:18;22.77;;;10.43;;
51248;SDS011;39642;47.556;18.728;2023-05-17T05:47:44;25.77;;;10.20;;
51248;SDS011;39642;47.556;18.728;2023-05-17T05:50:10;23.45;;;8.85;;
51248;SDS011;39642;47.556;18.728;2023-05-17T05:52:36;20.67;;;8.25;;
51248;SDS011;39642;47.556;18.728;2023-05-17T05:55:02;18.27;;;7.37;;
51248;SDS011;39642;47.556;18.728;2023-05-17T05:57:28;18.62;;;7.35;;
51248;SDS011;39642;47.556;18.728;2023-05-17T05:59:54;15.82;;;6.97;;
51248;SDS011;39642;47.556;18.728;2023-05-17T06:02:20;16.35;;;6.47;;
51248;SDS011;39642;47.556;18.728;2023-05-17T06:04:47;16.33;;;6.57;;
51248;SDS011;39642;47.556;18.728;2023-05-17T06:07:13;20.75;;;6.68;;
51248;SDS011;39642;47.556;18.728;2023-05-17T06:09:40;15.80;;;6.00;;
51248;SDS011;39642;47.556;18.728;2023-05-17T06:12:06;17.58;;;5.90;;
51248;SDS011;39642;47.556;18.728;2023-05-17T06:14:33;13.07;;;5.18;;
51248;SDS011;39642;47.556;18.728;2023-05-17T06:16:58;13.20;;;4.80;;
51248;SDS011;39642;47.556;18.728;2023-05-17T06:19:24;15.05;;;5.30;;
51248;SDS011;39642;47.556;18.728;2023-05-17T06:21:50;13.77;;;5.60;;
51248;SDS011;39642;47.556;18.728;2023-05-17T06:24:16;17.20;;;5.25;;
51248;SDS011;39642;47.556;18.728;2023-05-17T06:26:42;11.50;;;4.47;;
51248;SDS011;39642;47.556;18.728;2023-05-17T06:29:11;14.25;;;5.37;;
51248;SDS011;39642;47.556;18.728;2023-05-17T06:31:37;16.55;;;4.68;;
51248;SDS011;39642;47.556;18.728;2023-05-17T06:34:03;12.27;;;4.15;;
51248;SDS011;39642;47.556;18.728;2023-05-17T06:36:29;14.20;;;4.65;;
51248;SDS011;39642;47.556;18.728;2023-05-17T06:38:55;11.38;;;4.32;;
51248;SDS011;39642;47.556;18.728;2023-05-17T06:41:21;12.35;;;4.53;;
51248;SDS011;39642;47.556;18.728;2023-05-17T06:43:47;13.25;;;4.68;;
51248;SDS011;39642;47.556;18.728;2023-05-17T06:46:13;11.65;;;4.40;;
51248;SDS011;39642;47.556;18.728;2023-05-17T06:48:38;12.18;;;4.45;;
51248;SDS011;39642;47.556;18.728;2023-05-17T06:51:04;15.18;;;4.70;;
51248;SDS011;39642;47.556;18.728;2023-05-17T06:53:30;12.30;;;4.28;;
51248;SDS011;39642;47.556;18.728;2023-05-17T06:55:56;14.18;;;4.50;;
51248;SDS011;39642;47.556;18.728;2023-05-17T06:58:22;16.73;;;4.57;;
51248;SDS011;39642;47.556;18.728;2023-05-17T07:00:48;17.77;;;4.90;;
51248;SDS011;39642;47.556;18.728;2023-05-17T07:03:14;11.35;;;3.80;;
51248;SDS011;39642;47.556;18.728;2023-05-17T07:05:40;13.07;;;4.03;;
51248;SDS011;39642;47.556;18.728;2023-05-17T07:08:06;14.60;;;3.85;;
51248;SDS011;39642;47.556;18.728;2023-05-17T07:10:31;11.12;;;3.50;;
51248;SDS011;39642;47.556;18.728;2023-05-17T07:12:58;13.80;;;3.95;;
51248;SDS011;39642;47.556;18.728;2023-05-17T07:15:23;10.68;;;3.30;;
51248;SDS011;39642;47.556;18.728;2023-05-17T07:17:49;12.98;;;3.85;;
51248;SDS011;39642;47.556;18.728;2023-05-17T07:20:15;13.18;;;3.90;;
51248;SDS011;39642;47.556;18.728;2023-05-17T07:22:41;9.73;;;3.12;;
51248;SDS011;39642;47.556;18.728;2023-05-17T07:25:07;14.77;;;4.03;;
51248;SDS011;39642;47.556;18.728;2023-05-17T07:27:33;17.08;;;3.20;;
51248;SDS011;39642;47.556;18.728;2023-05-17T07:30:00;11.90;;;3.15;;
51248;SDS011;39642;47.556;18.728;2023-05-17T07:32:26;11.90;;;3.12;;
51248;SDS011;39642;47.556;18.728;2023-05-17T07:34:52;12.13;;;3.30;;
51248;SDS011;39642;47.556;18.728;2023-05-17T07:37:18;13.25;;;3.55;;
51248;SDS011;39642;47.556;18.728;2023-05-17T07:39:43;12.25;;;2.87;;
51248;SDS011;39642;47.556;18.728;2023-05-17T07:42:10;12.70;;;3.37;;
51248;SDS011;39642;47.556;18.728;2023-05-17T07:44:35;13.88;;;3.42;;
51248;SDS011;39642;47.556;18.728;2023-05-17T07:47:01;16.02;;;3.60;;
51248;SDS011;39642;47.556;18.728;2023-05-17T07:49:29;15.05;;;3.78;;
51248;SDS011;39642;47.556;18.728;2023-05-17T07:51:55;21.15;;;4.00;;
51248;SDS011;39642;47.556;18.728;2023-05-17T07:54:21;21.33;;;3.83;;
51248;SDS011;39642;47.556;18.728;2023-05-17T07:59:20;13.77;;;4.03;;
51248;SDS011;39642;47.556;18.728;2023-05-17T08:01:47;19.23;;;4.32;;
51248;SDS011;39642;47.556;18.728;2023-05-17T08:04:13;15.43;;;3.53;;
51248;SDS011;39642;47.556;18.728;2023-05-17T08:06:39;15.80;;;3.62;;
51248;SDS011;39642;47.556;18.728;2023-05-17T08:09:06;19.23;;;4.07;;
51248;SDS011;39642;47.556;18.728;2023-05-17T08:11:32;13.90;;;3.70;;
51248;SDS011;39642;47.556;18.728;2023-05-17T08:13:59;14.43;;;3.87;;
51248;SDS011;39642;47.556;18.728;2023-05-17T08:16:25;15.07;;;3.72;;
51248;SDS011;39642;47.556;18.728;2023-05-17T08:18:51;13.65;;;3.67;;
51248;SDS011;39642;47.556;18.728;2023-05-17T08:21:17;15.18;;;3.53;;
51248;SDS011;39642;47.556;18.728;2023-05-17T08:23:43;14.98;;;3.83;;
51248;SDS011;39642;47.556;18.728;2023-05-17T08:26:09;16.50;;;3.50;;
51248;SDS011;39642;47.556;18.728;2023-05-17T08:28:36;16.23;;;3.45;;
51248;SDS011;39642;47.556;18.728;2023-05-17T08:31:03;16.27;;;3.30;;
51248;SDS011;39642;47.556;18.728;2023-05-17T08:33:29;11.30;;;2.97;;
51248;SDS011;39642;47.556;18.728;2023-05-17T08:35:55;14.02;;;2.85;;
51248;SDS011;39642;47.556;18.728;2023-05-17T08:38:22;12.60;;;3.40;;
51248;SDS011;39642;47.556;18.728;2023-05-17T08:40:51;10.95;;;2.97;;
51248;SDS011;39642;47.556;18.728;2023-05-17T08:43:18;19.45;;;3.60;;
51248;SDS011;39642;47.556;18.728;2023-05-17T08:45:47;14.48;;;2.92;;
51248;SDS011;39642;47.556;18.728;2023-05-17T08:48:14;21.75;;;3.05;;
51248;SDS011;39642;47.556;18.728;2023-05-17T08:50:46;20.58;;;3.30;;
51248;SDS011;39642;47.556;18.728;2023-05-17T08:53:15;17.55;;;3.60;;
51248;SDS011;39642;47.556;18.728;2023-05-17T08:55:45;37.60;;;5.12;;
51248;SDS011;39642;47.556;18.728;2023-05-17T08:58:13;24.77;;;3.75;;
51248;SDS011;39642;47.556;18.728;2023-05-17T09:00:44;21.02;;;3.22;;
51248;SDS011;39642;47.556;18.728;2023-05-17T09:03:12;25.48;;;4.50;;
51248;SDS011;39642;47.556;18.728;2023-05-17T09:05:42;22.52;;;4.00;;
51248;SDS011;39642;47.556;18.728;2023-05-17T09:08:09;24.50;;;3.58;;
51248;SDS011;39642;47.556;18.728;2023-05-17T09:10:41;23.35;;;3.67;;
51248;SDS011;39642;47.556;18.728;2023-05-17T09:13:10;21.12;;;3.20;;
51248;SDS011;39642;47.556;18.728;2023-05-17T09:15:37;15.32;;;3.20;;
51248;SDS011;39642;47.556;18.728;2023-05-17T09:18:09;14.85;;;3.17;;
51248;SDS011;39642;47.556;18.728;2023-05-17T09:20:36;18.80;;;3.00;;
51248;SDS011;39642;47.556;18.728;2023-05-17T09:23:03;15.95;;;3.10;;
51248;SDS011;39642;47.556;18.728;2023-05-17T09:25:31;16.27;;;3.15;;
51248;SDS011;39642;47.556;18.728;2023-05-17T09:28:00;15.77;;;3.10;;
51248;SDS011;39642;47.556;18.728;2023-05-17T09:30:33;14.55;;;3.03;;
51248;SDS011;39642;47.556;18.728;2023-05-17T09:33:06;11.95;;;3.00;;
51248;SDS011;39642;47.556;18.728;2023-05-17T09:35:33;11.60;;;2.72;;
51248;SDS011;39642;47.556;18.728;2023-05-17T09:38:10;11.35;;;2.95;;
51248;SDS011;39642;47.556;18.728;2023-05-17T09:40:44;16.37;;;3.25;;
51248;SDS011;39642;47.556;18.728;2023-05-17T09:43:13;15.15;;;2.78;;
51248;SDS011;39642;47.556;18.728;2023-05-17T09:45:41;25.88;;;3.47;;
51248;SDS011;39642;47.556;18.728;2023-05-17T09:50:44;26.77;;;4.28;;
51248;SDS011;39642;47.556;18.728;2023-05-17T09:53:49;27.65;;;3.45;;
51248;SDS011;39642;47.556;18.728;2023-05-17T09:56:09;17.17;;;3.50;;
51248;SDS011;39642;47.556;18.728;2023-05-17T09:58:35;19.10;;;3.85;;
51248;SDS011;39642;47.556;18.728;2023-05-17T10:01:05;20.70;;;3.47;;
51248;SDS011;39642;47.556;18.728;2023-05-17T10:03:34;14.38;;;3.42;;
51248;SDS011;39642;47.556;18.728;2023-05-17T10:06:01;13.95;;;2.92;;
51248;SDS011;39642;47.556;18.728;2023-05-17T10:08:31;13.50;;;3.10;;
51248;SDS011;39642;47.556;18.728;2023-05-17T10:11:07;11.77;;;2.87;;
51248;SDS011;39642;47.556;18.728;2023-05-17T10:16:31;18.83;;;3.50;;
51248;SDS011;39642;47.556;18.728;2023-05-17T10:18:59;15.30;;;3.00;;
51248;SDS011;39642;47.556;18.728;2023-05-17T10:21:31;18.52;;;3.20;;
51248;SDS011;39642;47.556;18.728;2023-05-17T10:24:01;14.00;;;2.72;;
51248;SDS011;39642;47.556;18.728;2023-05-17T10:26:28;13.95;;;2.85;;
51248;SDS011;39642;47.556;18.728;2023-05-17T10:28:59;13.13;;;2.80;;
51248;SDS011;39642;47.556;18.728;2023-05-17T10:31:31;16.17;;;3.22;;
51248;SDS011;39642;47.556;18.728;2023-05-17T10:33:59;17.55;;;3.12;;
51248;SDS011;39642;47.556;18.728;2023-05-17T10:36:26;17.15;;;3.33;;
51248;SDS011;39642;47.556;18.728;2023-05-17T10:38:52;20.48;;;3.55;;
51248;SDS011;39642;47.556;18.728;2023-05-17T10:41:23;29.50;;;4.03;;
51248;SDS011;39642;47.556;18.728;2023-05-17T10:43:55;29.17;;;4.00;;
51248;SDS011;39642;47.556;18.728;2023-05-17T10:46:23;33.20;;;4.10;;
51248;SDS011;39642;47.556;18.728;2023-05-17T10:48:50;23.42;;;3.87;;
51248;SDS011;39642;47.556;18.728;2023-05-17T10:51:24;27.98;;;4.35;;
51248;SDS011;39642;47.556;18.728;2023-05-17T10:56:30;24.50;;;3.45;;
51248;SDS011;39642;47.556;18.728;2023-05-17T10:59:13;20.58;;;3.42;;
51248;SDS011;39642;47.556;18.728;2023-05-17T11:01:47;13.65;;;2.85;;
51248;SDS011;39642;47.556;18.728;2023-05-17T11:04:40;25.60;;;3.60;;
51248;SDS011;39642;47.556;18.728;2023-05-17T11:09:44;22.30;;;3.80;;
51248;SDS011;39642;47.556;18.728;2023-05-17T11:12:13;27.62;;;3.62;;
51248;SDS011;39642;47.556;18.728;2023-05-17T11:17:13;28.02;;;3.70;;
51248;SDS011;39642;47.556;18.728;2023-05-17T11:22:24;18.00;;;3.30;;
51248;SDS011;39642;47.556;18.728;2023-05-17T11:24:52;17.62;;;3.40;;
51248;SDS011;39642;47.556;18.728;2023-05-17T11:27:22;26.77;;;3.78;;
51248;SDS011;39642;47.556;18.728;2023-05-17T11:29:52;21.95;;;3.67;;
51248;SDS011;39642;47.556;18.728;2023-05-17T11:32:27;28.10;;;3.33;;
51248;SDS011;39642;47.556;18.728;2023-05-17T11:34:56;19.60;;;3.10;;
51248;SDS011;39642;47.556;18.728;2023-05-17T11:37:25;32.78;;;4.50;;
51248;SDS011;39642;47.556;18.728;2023-05-17T11:40:05;33.20;;;4.35;;
51248;SDS011;39642;47.556;18.728;2023-05-17T11:42:32;36.97;;;5.40;;
51248;SDS011;39642;47.556;18.728;2023-05-17T11:45:00;37.25;;;5.10;;
51248;SDS011;39642;47.556;18.728;2023-05-17T11:47:27;38.85;;;3.90;;
51248;SDS011;39642;47.556;18.728;2023-05-17T11:49:53;27.30;;;4.22;;
51248;SDS011;39642;47.556;18.728;2023-05-17T11:52:20;35.97;;;4.40;;
51248;SDS011;39642;47.556;18.728;2023-05-17T11:54:47;25.92;;;4.18;;
51248;SDS011;39642;47.556;18.728;2023-05-17T11:57:14;20.95;;;3.80;;
51248;SDS011;39642;47.556;18.728;2023-05-17T11:59:42;19.45;;;3.03;;
51248;SDS011;39642;47.556;18.728;2023-05-17T12:02:08;33.78;;;3.90;;
51248;SDS011;39642;47.556;18.728;2023-05-17T12:04:36;18.45;;;3.50;;
51248;SDS011;39642;47.556;18.728;2023-05-17T12:07:02;21.23;;;3.08;;
51248;SDS011;39642;47.556;18.728;2023-05-17T12:09:29;22.02;;;3.30;;
51248;SDS011;39642;47.556;18.728;2023-05-17T12:11:55;23.62;;;3.03;;
51248;SDS011;39642;47.556;18.728;2023-05-17T12:14:22;16.45;;;2.65;;
51248;SDS011;39642;47.556;18.728;2023-05-17T12:16:52;21.77;;;3.12;;
51248;SDS011;39642;47.556;18.728;2023-05-17T12:19:22;17.17;;;3.12;;
51248;SDS011;39642;47.556;18.728;2023-05-17T12:21:50;19.10;;;2.90;;
51248;SDS011;39642;47.556;18.728;2023-05-17T12:24:16;15.88;;;2.60;;
51248;SDS011;39642;47.556;18.728;2023-05-17T12:26:42;16.35;;;2.50;;
51248;SDS011;39642;47.556;18.728;2023-05-17T12:29:10;18.42;;;2.95;;
51248;SDS011;39642;47.556;18.728;2023-05-17T12:31:38;27.10;;;3.25;;
51248;SDS011;39642;47.556;18.728;2023-05-17T12:34:06;21.30;;;3.58;;
51248;SDS011;39642;47.556;18.728;2023-05-17T12:36:34;21.42;;;3.92;;
51248;SDS011;39642;47.556;18.728;2023-05-17T12:39:02;31.37;;;3.97;;
51248;SDS011;39642;47.556;18.728;2023-05-17T12:41:30;21.37;;;3.42;;
51248;SDS011;39642;47.556;18.728;2023-05-17T12:43:57;27.25;;;3.10;;
51248;SDS011;39642;47.556;18.728;2023-05-17T12:46:23;13.88;;;3.10;;
51248;SDS011;39642;47.556;18.728;2023-05-17T12:48:49;22.08;;;3.35;;
51248;SDS011;39642;47.556;18.728;2023-05-17T12:51:17;19.85;;;2.83;;
51248;SDS011;39642;47.556;18.728;2023-05-17T12:53:57;17.05;;;3.08;;
51248;SDS011;39642;47.556;18.728;2023-05-17T12:56:26;16.27;;;3.20;;
51248;SDS011;39642;47.556;18.728;2023-05-17T13:01:35;16.08;;;2.70;;
51248;SDS011;39642;47.556;18.728;2023-05-17T13:04:03;14.65;;;2.78;;
51248;SDS011;39642;47.556;18.728;2023-05-17T13:09:16;18.25;;;2.50;;
51248;SDS011;39642;47.556;18.728;2023-05-17T13:11:48;31.77;;;4.78;;
51248;SDS011;39642;47.556;18.728;2023-05-17T13:14:31;22.90;;;3.90;;
51248;SDS011;39642;47.556;18.728;2023-05-17T13:17:01;22.35;;;3.30;;
51248;SDS011;39642;47.556;18.728;2023-05-17T13:19:34;19.73;;;3.30;;
51248;SDS011;39642;47.556;18.728;2023-05-17T13:22:01;17.15;;;2.67;;
51248;SDS011;39642;47.556;18.728;2023-05-17T13:24:29;19.20;;;3.00;;
51248;SDS011;39642;47.556;18.728;2023-05-17T13:26:56;18.67;;;3.12;;
51248;SDS011;39642;47.556;18.728;2023-05-17T13:29:22;21.37;;;3.37;;
51248;SDS011;39642;47.556;18.728;2023-05-17T13:31:48;23.27;;;3.47;;
51248;SDS011;39642;47.556;18.728;2023-05-17T13:34:14;21.00;;;3.62;;
51248;SDS011;39642;47.556;18.728;2023-05-17T13:36:40;18.33;;;3.40;;
51248;SDS011;39642;47.556;18.728;2023-05-17T13:39:06;25.92;;;3.00;;
51248;SDS011;39642;47.556;18.728;2023-05-17T13:41:32;16.42;;;2.95;;
51248;SDS011;39642;47.556;18.728;2023-05-17T13:43:58;28.73;;;3.83;;
51248;SDS011;39642;47.556;18.728;2023-05-17T13:46:24;26.30;;;3.70;;
51248;SDS011;39642;47.556;18.728;2023-05-17T13:48:51;22.48;;;3.40;;
51248;SDS011;39642;47.556;18.728;2023-05-17T13:51:17;23.55;;;3.30;;
51248;SDS011;39642;47.556;18.728;2023-05-17T13:53:43;20.02;;;3.55;;
51248;SDS011;39642;47.556;18.728;2023-05-17T13:56:09;15.30;;;3.03;;
51248;SDS011;39642;47.556;18.728;2023-05-17T13:58:35;24.75;;;3.12;;
51248;SDS011;39642;47.556;18.728;2023-05-17T14:01:01;15.02;;;2.90;;
51248;SDS011;39642;47.556;18.728;2023-05-17T14:03:27;17.30;;;2.60;;
51248;SDS011;39642;47.556;18.728;2023-05-17T14:05:53;14.65;;;2.87;;
51248;SDS011;39642;47.556;18.728;2023-05-17T14:08:19;18.98;;;2.72;;
51248;SDS011;39642;47.556;18.728;2023-05-17T14:10:45;14.35;;;2.40;;
51248;SDS011;39642;47.556;18.728;2023-05-17T14:13:11;14.30;;;2.40;;
51248;SDS011;39642;47.556;18.728;2023-05-17T14:15:38;11.68;;;2.50;;
51248;SDS011;39642;47.556;18.728;2023-05-17T14:18:05;17.20;;;2.70;;
51248;SDS011;39642;47.556;18.728;2023-05-17T14:20:31;16.77;;;2.53;;
51248;SDS011;39642;47.556;18.728;2023-05-17T14:22:58;16.42;;;2.75;;
51248;SDS011;39642;47.556;18.728;2023-05-17T14:25:24;16.37;;;2.50;;
51248;SDS011;39642;47.556;18.728;2023-05-17T14:27:50;14.02;;;2.12;;
51248;SDS011;39642;47.556;18.728;2023-05-17T14:30:18;12.98;;;2.17;;
51248;SDS011;39642;47.556;18.728;2023-05-17T14:32:44;14.90;;;2.30;;
51248;SDS011;39642;47.556;18.728;2023-05-17T14:35:11;14.45;;;2.60;;
51248;SDS011;39642;47.556;18.728;2023-05-17T14:37:37;22.05;;;2.78;;
51248;SDS011;39642;47.556;18.728;2023-05-17T14:40:03;16.58;;;2.75;;
51248;SDS011;39642;47.556;18.728;2023-05-17T14:42:30;18.00;;;2.62;;
51248;SDS011;39642;47.556;18.728;2023-05-17T14:44:56;15.07;;;2.70;;
51248;SDS011;39642;47.556;18.728;2023-05-17T14:47:22;16.23;;;2.62;;
51248;SDS011;39642;47.556;18.728;2023-05-17T14:49:48;16.35;;;2.28;;
51248;SDS011;39642;47.556;18.728;2023-05-17T14:52:14;13.02;;;2.30;;
51248;SDS011;39642;47.556;18.728;2023-05-17T14:54:40;15.23;;;2.30;;
51248;SDS011;39642;47.556;18.728;2023-05-17T14:57:06;10.25;;;2.10;;